createdAt,value
2022-11-17T00:00:01.443Z,80.82
2022-11-17T00:05:03.283Z,81.92
2022-11-17T00:10:05.094Z,80.94
2022-11-17T00:15:06.676Z,81.22
2022-11-17T00:20:29.354Z,80.71
2022-11-17T00:25:30.656Z,81.26
2022-11-17T00:30:50.598Z,80.74
2022-11-17T00:35:54.270Z,80.95
2022-11-17T00:40:55.533Z,80.98
2022-11-17T00:45:56.804Z,80.71
2022-11-17T00:51:02.751Z,81.23
2022-11-17T00:56:04.160Z,81.50
2022-11-17T01:01:05.873Z,81.60
2022-11-17T01:06:10.175Z,82.09
2022-11-17T01:11:19.383Z,81.89
2022-11-17T01:16:21.311Z,81.66
2022-11-17T01:21:24.984Z,81.47
2022-11-17T01:26:29.074Z,82.27
2022-11-17T01:31:36.199Z,82.14
2022-11-17T01:36:59.056Z,81.70
2022-11-17T01:42:11.681Z,81.58
2022-11-17T01:47:38.265Z,82.05
2022-11-17T01:52:40.969Z,82.18
2022-11-17T01:57:49.804Z,82.34
2022-11-17T02:02:51.837Z,82.61
2022-11-17T02:07:55.048Z,82.85
2022-11-17T02:12:56.561Z,83.05
2022-11-17T02:17:59.018Z,82.97
2022-11-17T02:23:33.499Z,83.02
2022-11-17T02:28:40.207Z,83.10
2022-11-17T02:33:41.402Z,82.94
2022-11-17T02:38:57.221Z,83.04
2022-11-17T02:44:21.634Z,83.35
2022-11-17T02:49:36.473Z,84.53
2022-11-17T02:54:37.888Z,85.75
2022-11-17T02:59:46.013Z,85.36
2022-11-17T03:05:14.588Z,84.91
2022-11-17T03:10:43.836Z,86.27
2022-11-17T03:15:57.842Z,85.52
2022-11-17T03:21:05.097Z,85.00
2022-11-17T03:26:12.236Z,86.08
2022-11-17T03:31:15.043Z,85.31
2022-11-17T03:36:22.210Z,85.50
2022-11-17T03:41:25.623Z,86.00
2022-11-17T03:46:29.407Z,85.61
2022-11-17T03:51:33.050Z,85.11
2022-11-17T03:56:49.052Z,85.03
2022-11-17T04:01:51.073Z,85.38
2022-11-17T04:06:55.529Z,85.07
2022-11-17T04:12:15.435Z,84.80
2022-11-17T04:17:16.704Z,84.32
2022-11-17T04:22:17.995Z,83.88
2022-11-17T04:27:38.160Z,83.94
2022-11-17T04:32:39.412Z,84.11
2022-11-17T04:37:40.672Z,84.48
2022-11-17T04:42:41.944Z,83.46
2022-11-17T04:47:43.217Z,83.91
2022-11-17T04:52:44.452Z,83.41
2022-11-17T04:57:45.708Z,84.10
2022-11-17T05:02:46.979Z,84.03
2022-11-17T05:07:48.211Z,83.91
2022-11-17T05:13:08.758Z,84.50
2022-11-17T05:18:10.031Z,85.11
2022-11-17T05:23:29.697Z,84.99
2022-11-17T05:28:31.344Z,85.31
2022-11-17T05:33:37.556Z,86.18
2022-11-17T05:38:39.407Z,87.83
2022-11-17T05:43:40.700Z,88.69
2022-11-17T05:48:41.943Z,89.71
2022-11-17T05:53:43.262Z,90.94
2022-11-17T05:58:47.105Z,90.45
2022-11-17T06:03:53.803Z,91.20
2022-11-17T06:08:55.759Z,91.84
2022-11-17T06:13:57.032Z,92.44
2022-11-17T06:19:15.814Z,93.28
2022-11-17T06:24:17.547Z,93.20
2022-11-17T06:29:19.448Z,91.49
2022-11-17T06:34:20.890Z,92.85
2022-11-17T06:39:22.132Z,92.84
2022-11-17T06:44:23.366Z,92.30
2022-11-17T06:49:24.793Z,92.52
2022-11-17T06:54:26.611Z,92.38
2022-11-17T06:59:28.022Z,91.89
2022-11-17T07:04:29.391Z,92.05
2022-11-17T07:09:30.833Z,90.88
2022-11-17T07:14:32.177Z,91.77
2022-11-17T07:19:33.634Z,92.43
2022-11-17T07:24:34.977Z,92.75
2022-11-17T07:29:36.414Z,91.55
2022-11-17T07:34:37.755Z,91.99
2022-11-17T07:39:39.179Z,91.17
2022-11-17T07:44:40.502Z,90.84
2022-11-17T07:49:41.872Z,90.40
2022-11-17T07:54:43.257Z,89.78
2022-11-17T07:59:44.592Z,88.01
2022-11-17T08:04:45.892Z,87.27
2022-11-17T08:09:47.179Z,85.60
2022-11-17T08:14:48.491Z,84.79
2022-11-17T08:19:49.852Z,82.99
2022-11-17T08:24:51.147Z,83.94
2022-11-17T08:29:52.653Z,82.97
2022-11-17T08:34:54.195Z,82.64
2022-11-17T08:39:55.715Z,82.38
2022-11-17T08:44:57.106Z,82.69
2022-11-17T08:49:58.487Z,81.39
2022-11-17T08:55:00.079Z,80.67
2022-11-17T09:00:02.207Z,78.57
2022-11-17T09:05:04.252Z,79.00
2022-11-17T09:10:06.727Z,77.14
2022-11-17T09:15:08.578Z,76.49
2022-11-17T09:20:10.493Z,76.76
2022-11-17T09:25:13.652Z,75.47
2022-11-17T09:30:15.616Z,75.97
2022-11-17T09:35:18.303Z,77.52
2022-11-17T09:40:20.891Z,78.28
2022-11-17T09:45:27.822Z,75.72
2022-11-17T09:50:34.777Z,72.76
2022-11-17T09:55:38.958Z,72.06
2022-11-17T10:00:43.375Z,71.41
2022-11-17T10:05:44.842Z,72.46
2022-11-17T10:10:49.321Z,72.81
2022-11-17T10:15:57.603Z,74.06
2022-11-17T10:20:58.932Z,72.04
2022-11-17T10:26:00.319Z,64.63
2022-11-17T10:31:04.834Z,56.72
2022-11-17T10:36:14.846Z,53.07
2022-11-17T10:41:20.087Z,55.92
2022-11-17T10:46:22.222Z,62.68
2022-11-17T10:51:26.513Z,66.28
2022-11-17T10:56:29.696Z,67.56
2022-11-17T11:01:37.296Z,58.63
2022-11-17T11:06:38.591Z,50.86
2022-11-17T11:11:48.175Z,50.67
2022-11-17T11:16:50.907Z,58.85
2022-11-17T11:22:30.464Z,64.00
2022-11-17T11:27:47.781Z,68.30
2022-11-17T11:33:23.716Z,72.04
2022-11-17T11:38:37.217Z,76.37
2022-11-17T11:44:00.323Z,77.55
2022-11-17T11:49:16.452Z,79.30
2022-11-17T11:54:40.542Z,78.13
2022-11-17T11:59:50.606Z,73.51
2022-11-17T12:05:17.851Z,74.23
2022-11-17T12:10:36.154Z,74.66
2022-11-17T12:15:37.722Z,71.29
2022-11-17T12:20:39.130Z,51.62
2022-11-17T12:25:53.875Z,41.82
2022-11-17T12:31:10.122Z,38.28
2022-11-17T12:36:32.326Z,41.97
2022-11-17T12:41:48.607Z,48.67
2022-11-17T12:46:59.438Z,55.05
2022-11-17T12:52:07.823Z,58.15
2022-11-17T12:57:31.997Z,60.94
2022-11-17T13:03:10.165Z,59.31
2022-11-17T13:08:21.167Z,51.43
2022-11-17T13:13:24.272Z,44.87
2022-11-17T13:18:36.583Z,40.56
2022-11-17T13:23:44.281Z,41.11
2022-11-17T13:28:46.249Z,50.78
2022-11-17T13:34:07.026Z,56.90
2022-11-17T13:39:16.856Z,60.68
2022-11-17T13:44:23.061Z,63.58
2022-11-17T13:49:32.236Z,65.33
2022-11-17T13:54:34.837Z,65.87
2022-11-17T13:59:38.392Z,66.42
2022-11-17T14:04:39.666Z,67.33
2022-11-17T14:09:40.915Z,67.91
2022-11-17T14:14:44.094Z,68.33
2022-11-17T14:19:46.620Z,68.81
2022-11-17T14:24:47.886Z,69.79
2022-11-17T14:29:49.157Z,70.29
2022-11-17T14:34:50.459Z,70.51
2022-11-17T14:39:51.788Z,71.22
2022-11-17T14:44:53.151Z,71.98
2022-11-17T14:49:54.636Z,72.31
2022-11-17T14:54:55.975Z,77.78
2022-11-17T14:59:57.413Z,78.67
2022-11-17T15:04:59.973Z,78.48
2022-11-17T15:10:01.562Z,79.80
2022-11-17T15:15:04.945Z,81.02
2022-11-17T15:20:07.092Z,82.11
2022-11-17T15:25:09.213Z,79.96
2022-11-17T15:30:10.986Z,77.33
2022-11-17T15:35:12.276Z,79.14
2022-11-17T15:40:19.036Z,80.85
2022-11-17T15:45:20.677Z,82.43
2022-11-17T15:50:22.026Z,83.47
2022-11-17T15:55:23.373Z,83.21
2022-11-17T16:00:24.648Z,84.40
2022-11-17T16:05:26.120Z,85.21
2022-11-17T16:10:27.547Z,86.43
2022-11-17T16:15:28.876Z,86.32
2022-11-17T16:20:30.170Z,87.03
2022-11-17T16:25:31.627Z,87.13
2022-11-17T16:30:35.605Z,86.39
2022-11-17T16:35:38.042Z,87.12
2022-11-17T16:40:39.880Z,86.33
2022-11-17T16:45:44.568Z,86.33
2022-11-17T16:50:46.963Z,85.96
2022-11-17T16:55:48.240Z,86.50
2022-11-17T17:00:49.546Z,85.54
2022-11-17T17:05:50.861Z,86.48
2022-11-17T17:10:52.137Z,85.14
2022-11-17T17:15:53.460Z,85.38
2022-11-17T17:20:54.730Z,84.93
2022-11-17T17:26:06.821Z,85.73
2022-11-17T17:31:08.336Z,86.47
2022-11-17T17:36:14.668Z,87.14
2022-11-17T17:41:18.579Z,87.83
2022-11-17T17:46:19.877Z,89.21
2022-11-17T17:51:25.340Z,89.24
2022-11-17T17:56:26.684Z,89.25
2022-11-17T18:01:30.403Z,87.43
2022-11-17T18:06:39.896Z,87.45
2022-11-17T18:11:49.418Z,88.71
2022-11-17T18:16:51.576Z,88.56
2022-11-17T18:21:52.911Z,88.52
2022-11-17T18:26:54.274Z,88.02
2022-11-17T18:31:55.711Z,87.37
2022-11-17T18:36:57.072Z,86.96
2022-11-17T18:41:58.338Z,87.87
2022-11-17T18:47:02.992Z,88.51
2022-11-17T18:52:05.230Z,88.69
2022-11-17T18:57:07.630Z,89.99
2022-11-17T19:02:08.907Z,90.16
2022-11-17T19:07:10.352Z,90.11
2022-11-17T19:12:12.567Z,90.05
2022-11-17T19:17:13.856Z,89.55
2022-11-17T19:22:15.138Z,89.32
2022-11-17T19:27:16.491Z,89.47
2022-11-17T19:32:17.829Z,89.10
2022-11-17T19:37:19.114Z,89.51
2022-11-17T19:42:20.439Z,89.52
2022-11-17T19:47:21.856Z,89.23
2022-11-17T19:52:23.107Z,89.61
2022-11-17T19:57:24.449Z,89.25
2022-11-17T20:02:25.735Z,89.55
2022-11-17T20:07:27.222Z,88.95
2022-11-17T20:12:28.806Z,89.17
2022-11-17T20:17:30.126Z,89.50
2022-11-17T20:22:31.793Z,90.53
2022-11-17T20:27:33.267Z,90.52
2022-11-17T20:32:35.450Z,90.66
2022-11-17T20:37:36.738Z,90.87
2022-11-17T20:42:37.998Z,90.54
2022-11-17T20:47:39.438Z,90.39
2022-11-17T20:52:40.943Z,90.22
2022-11-17T20:57:42.286Z,89.83
2022-11-17T21:02:43.606Z,90.27
2022-11-17T21:07:44.993Z,90.96
2022-11-17T21:12:46.372Z,90.89
2022-11-17T21:18:06.227Z,90.51
2022-11-17T21:23:07.487Z,90.00
2022-11-17T21:28:09.482Z,90.10
2022-11-17T21:33:10.835Z,89.78
2022-11-17T21:38:12.242Z,90.09
2022-11-17T21:43:13.524Z,90.27
2022-11-17T21:48:14.787Z,90.09
2022-11-17T21:53:16.098Z,89.32
2022-11-17T21:58:17.368Z,90.73
2022-11-17T22:03:18.647Z,91.17
2022-11-17T22:08:19.944Z,90.69
2022-11-17T22:13:21.190Z,90.72
2022-11-17T22:18:22.666Z,90.82
2022-11-17T22:23:24.042Z,90.73
2022-11-17T22:28:26.593Z,90.61
2022-11-17T22:33:28.933Z,90.29
2022-11-17T22:38:31.748Z,90.68
2022-11-17T22:43:33.435Z,90.49
2022-11-17T22:48:36.561Z,90.37
2022-11-17T22:53:38.125Z,90.26
2022-11-17T22:58:39.434Z,90.29
2022-11-17T23:03:40.742Z,90.45
2022-11-17T23:08:42.041Z,90.54
2022-11-17T23:13:43.285Z,90.52
2022-11-17T23:18:44.554Z,90.33
2022-11-17T23:23:45.811Z,91.38
2022-11-17T23:28:47.106Z,92.25
2022-11-17T23:33:48.728Z,92.28
2022-11-17T23:38:51.153Z,92.57
2022-11-17T23:43:53.924Z,92.88
2022-11-17T23:48:56.938Z,93.38
2022-11-17T23:54:00.935Z,92.99
2022-11-17T23:59:02.334Z,92.68
